Terminal Aerodrome Forecast
Issued by NWS Louisville, KY

Home | Current Version | Previous Version | Text Only | Print | Product List | Glossary On
Versions: 1 2 3 4 5 6 7 8 9 10 11 12
000
FTUS43 KLMK 251100 RRA
TAFBWG
TAF
KBWG 251148Z 2512/2612 13009KT 5SM -SHRA VCTS BKN015CB
      TEMPO 2512/2516 BKN009CB
     FM251600 20013KT P6SM SCT035
     FM251800 24014G25KT P6SM BKN035
     FM260000 25012KT P6SM VCTS BKN035CB
     FM260600 30012KT P6SM VCSH BKN012=

USA.gov is the U.S. government's official web portal to all federal, state and local government web resources and services.